Página principal
METAR-TAF:

METAR-TAF

Aeroportos :

Brenham Municipal Airport

Brenham, Texas, Estados Unidos

latitude: 30-13-08N, longitude: 096-22-27W, altura: 94 m

Observação actual do tempo

O boletim foi feito há 21 minutos, às 09:35 UTC
Vento 4 kt de sul
Temperatura 14°C
Humidade 82%
Pressão 1020 hPa
Visibilidade: 16.1 km
Nuvens fragmentadasa uma altura de 3600 ft
Encobertoa uma altura de 4200 ft

METAR: K11R 120935Z AUTO 18004KT 10SM BKN036 OVC042 14/11 A3011 RMK AO2 T01400108

Hora: 03:56 (09:56 UTC)


TAF: em falta

Observações e previsões do tempo de mais de 4000 aeroportos (mensagens METAR e TAF).

As estações disponíveis são os pontos amarelos e vermelhos sobre o mapa.

Mova o rato sobre o mapa para ver o nome da estação.

Depois clique no ponto para visualizar as observações e previsões meteorológicas.

Para alterar o mapa : clique nos botões verdes com uma cruz preta para aumentar o zoom; no botão verde com uma pitada de zoom; ou nas setas verdes para mapas adjacentes.


METAR-TAF: